Time;durP1;ratioP1;P1;durP2;ratioP2;P2;SDS_P1;SDS_P2;PMS_P1;PMS_P2;Temp;Humidity;BMP_temperature;BMP_pressure;BME280_temperature;BME280_humidity;BME280_pressure;Samples;Min_cycle;Max_cycle;Signal;HPM_P1;HPM_P2
2023/07/25 00:02:13;;;;;;;;;2.00;2.00;;;;;20.30;75.03;100325.56;4999147;28;45357;-45
2023/07/25 00:04:38;;;;;;;;;5.33;3.00;;;;;20.29;75.65;100321.19;4999958;28;69163;-47
2023/07/25 00:07:03;;;;;;;;;5.67;4.00;;;;;20.28;75.28;100318.63;5002368;28;45407;-46
2023/07/25 00:09:29;;;;;;;;;4.67;4.00;;;;;20.28;74.18;100313.22;5001086;28;45580;-46
2023/07/25 00:11:54;;;;;;;;;1.67;1.67;;;;;20.27;73.67;100316.94;5000609;28;65987;-45
2023/07/25 00:14:19;;;;;;;;;3.00;3.00;;;;;20.25;73.18;100311.69;4995433;28;69067;-43
2023/07/25 00:16:45;;;;;;;;;4.25;2.50;;;;;20.23;73.78;100313.66;4998159;28;52387;-44
2023/07/25 00:19:10;;;;;;;;;4.25;3.25;;;;;20.20;73.73;100311.28;4998543;28;50757;-49
2023/07/25 00:21:35;;;;;;;;;2.00;2.00;;;;;20.16;73.81;100318.84;4999654;28;57458;-45
2023/07/25 00:24:01;;;;;;;;;3.00;3.00;;;;;20.15;72.98;100311.75;4998063;28;58649;-45
2023/07/25 00:26:26;;;;;;;;;3.00;3.00;;;;;20.16;73.68;100312.59;5000081;28;45987;-46
2023/07/25 00:28:51;;;;;;;;;3.00;3.00;;;;;20.16;73.52;100309.91;4999314;28;73174;-45
2023/07/25 00:31:17;;;;;;;;;4.33;4.33;;;;;20.12;74.55;100305.81;4999233;28;63104;-44
2023/07/25 00:33:42;;;;;;;;;5.00;3.00;;;;;20.11;74.74;100310.34;5000293;28;67713;-48
2023/07/25 00:36:07;;;;;;;;;5.00;3.33;;;;;20.09;75.09;100306.09;5002718;28;46090;-46
2023/07/25 00:38:33;;;;;;;;;6.00;5.00;;;;;20.05;75.50;100307.41;5002250;28;45373;-45
2023/07/25 00:40:58;;;;;;;;;7.33;6.00;;;;;20.00;75.52;100299.75;5001134;28;45407;-47
2023/07/25 00:43:24;;;;;;;;;6.00;5.00;;;;;19.97;75.65;100292.81;5001881;28;62258;-49
2023/07/25 00:45:49;;;;;;;;;6.00;5.00;;;;;19.92;74.97;100295.13;4998242;28;46194;-45
2023/07/25 00:48:14;;;;;;;;;6.33;6.33;;;;;19.89;74.84;100298.09;4997248;28;63878;-47
2023/07/25 00:50:40;;;;;;;;;6.00;6.00;;;;;19.85;77.03;100298.56;4995774;28;45511;-45
2023/07/25 00:53:06;;;;;;;;;5.00;5.00;;;;;19.82;74.47;100297.00;4995408;28;48448;-47
2023/07/25 00:55:32;;;;;;;;;7.00;6.00;;;;;19.82;75.16;100294.31;5000418;28;46177;-46
2023/07/25 00:57:57;;;;;;;;;7.00;6.00;;;;;19.80;74.95;100294.44;4996418;28;45528;-45
2023/07/25 01:00:23;;;;;;;;;5.00;5.00;;;;;19.81;74.84;100297.97;5000878;28;45496;-44
2023/07/25 01:02:48;;;;;;;;;4.67;4.67;;;;;19.79;74.58;100283.75;5001025;28;68185;-46
2023/07/25 01:05:14;;;;;;;;;4.00;4.00;;;;;19.78;74.38;100291.03;5001553;28;47233;-45
2023/07/25 01:07:40;;;;;;;;;5.33;5.00;;;;;19.77;73.86;100283.06;5001636;28;45479;-45
2023/07/25 01:10:06;;;;;;;;;4.00;3.00;;;;;19.76;74.16;100287.59;5000964;28;45411;-44
2023/07/25 01:12:32;;;;;;;;;3.67;3.00;;;;;19.76;74.86;100294.88;5001863;28;45559;-44
2023/07/25 01:14:57;;;;;;;;;4.00;4.00;;;;;19.76;74.36;100284.06;5001009;28;49245;-44
2023/07/25 01:17:24;;;;;;;;;3.00;3.00;;;;;19.75;74.66;100283.22;5001870;28;45681;-45
2023/07/25 01:19:50;;;;;;;;;4.33;4.00;;;;;19.75;74.56;100285.06;5001371;28;45325;-44
2023/07/25 01:22:16;;;;;;;;;2.67;2.67;;;;;19.77;74.73;100277.69;5000409;28;45658;-48
2023/07/25 01:24:46;;;;;;;;;2.00;2.00;;;;;19.77;74.56;100270.44;4999247;28;70757;-47
2023/07/25 01:27:13;;;;;;;;;3.00;3.00;;;;;19.78;74.42;100268.59;5001610;28;45313;-45
2023/07/25 01:29:38;;;;;;;;;2.67;2.67;;;;;19.78;74.48;100268.59;5001836;28;45368;-46
2023/07/25 01:32:04;;;;;;;;;3.33;2.00;;;;;19.78;74.13;100265.91;5001759;28;45282;-49
2023/07/25 01:34:30;;;;;;;;;3.33;2.33;;;;;19.79;74.20;100262.19;5001170;28;46329;-46
2023/07/25 01:36:55;;;;;;;;;3.33;3.33;;;;;19.79;74.71;100257.66;5001547;28;45367;-45
2023/07/25 01:39:20;;;;;;;;;4.00;4.00;;;;;19.80;74.68;100267.44;5000378;28;68365;-48
2023/07/25 01:41:46;;;;;;;;;4.00;2.50;;;;;19.81;74.37;100262.88;5001037;28;45408;-47
2023/07/25 01:44:11;;;;;;;;;3.00;3.00;;;;;19.80;74.48;100271.97;5001251;28;45400;-45
2023/07/25 01:46:41;;;;;;;;;4.33;3.00;;;;;19.80;73.83;100283.63;5000268;28;71994;-45
2023/07/25 01:49:09;;;;;;;;;3.00;3.00;;;;;19.80;73.62;100283.63;5000909;28;45419;-45
2023/07/25 01:51:34;;;;;;;;;3.00;3.00;;;;;19.80;73.60;100282.78;5001169;28;45428;-48
2023/07/25 01:53:59;;;;;;;;;4.67;1.67;;;;;19.79;73.93;100287.31;4999955;28;46078;-45
2023/07/25 01:56:25;;;;;;;;;3.67;2.67;;;;;19.80;73.44;100285.47;5000906;28;45725;-48
2023/07/25 01:58:51;;;;;;;;;2.00;2.00;;;;;19.78;74.09;100274.84;5001066;28;45372;-46
2023/07/25 02:01:16;;;;;;;;;2.25;2.25;;;;;19.77;74.12;100272.28;5001092;28;45556;-46
2023/07/25 02:03:41;;;;;;;;;4.50;3.00;;;;;19.76;74.18;100271.41;5000949;28;45412;-45
2023/07/25 02:06:07;;;;;;;;;4.50;3.25;;;;;19.75;74.17;100268.88;5000850;28;45282;-48
2023/07/25 02:08:32;;;;;;;;;5.00;4.00;;;;;19.74;74.20;100268.03;5001390;28;45237;-47
2023/07/25 02:10:57;;;;;;;;;2.50;2.50;;;;;19.74;73.75;100267.19;5001137;28;45461;-45
2023/07/25 02:13:23;;;;;;;;;3.67;3.00;;;;;19.73;74.16;100268.19;5000721;28;49316;-46
2023/07/25 02:15:48;;;;;;;;;3.00;3.00;;;;;19.72;74.16;100263.78;5001052;28;45381;-45
2023/07/25 02:18:13;;;;;;;;;2.50;2.00;;;;;19.70;73.72;100254.97;5000158;28;59564;-47
2023/07/25 02:20:39;;;;;;;;;3.67;2.00;;;;;19.70;73.96;100254.97;5000816;28;45643;-46
2023/07/25 02:23:04;;;;;;;;;2.33;2.33;;;;;19.66;73.92;100252.59;5000142;28;64931;-48
2023/07/25 02:25:29;;;;;;;;;3.00;3.00;;;;;19.64;73.58;100256.44;4999904;28;69218;-46
2023/07/25 02:27:55;;;;;;;;;3.00;2.00;;;;;19.60;74.43;100261.28;4999249;28;56023;-47
2023/07/25 02:30:21;;;;;;;;;4.00;3.00;;;;;19.58;73.91;100257.03;4999601;28;67521;-47
2023/07/25 02:32:46;;;;;;;;;2.33;2.33;;;;;19.57;74.05;100255.31;4999097;28;45392;-45
2023/07/25 02:35:12;;;;;;;;;2.33;2.33;;;;;19.52;74.18;100250.38;5000112;28;45399;-47
2023/07/25 02:37:37;;;;;;;;;4.33;2.67;;;;;19.46;74.36;100249.16;4999479;28;45386;-47
2023/07/25 02:40:03;;;;;;;;;4.33;4.33;;;;;19.43;73.87;100243.19;4999742;28;69290;-46
2023/07/25 02:42:28;;;;;;;;;2.33;2.33;;;;;19.39;74.10;100239.94;5000390;28;46030;-46
2023/07/25 02:44:53;;;;;;;;;3.33;3.33;;;;;19.38;74.33;100238.22;4999829;28;64264;-50
2023/07/25 02:47:18;;;;;;;;;6.00;4.33;;;;;19.38;74.37;100242.78;4999529;28;69369;-49
2023/07/25 02:49:44;;;;;;;;;5.00;3.00;;;;;19.37;74.43;100238.38;4999106;28;70212;-47
2023/07/25 02:52:09;;;;;;;;;6.33;2.33;;;;;19.34;74.11;100242.22;4998489;28;46964;-45
2023/07/25 02:54:35;;;;;;;;;4.67;4.00;;;;;19.31;74.27;100240.66;4997109;28;71791;-45
2023/07/25 02:57:00;;;;;;;;;6.00;4.00;;;;;19.28;74.44;100235.59;4998133;28;45337;-46
2023/07/25 02:59:25;;;;;;;;;4.00;2.00;;;;;19.27;74.82;100233.03;4998963;28;68364;-46
2023/07/25 03:01:50;;;;;;;;;5.00;5.00;;;;;19.25;74.63;100233.16;4998883;28;50219;-47
2023/07/25 03:04:16;;;;;;;;;5.00;4.00;;;;;19.23;74.74;100235.16;4998564;28;70676;-50
2023/07/25 03:06:41;;;;;;;;;4.00;4.00;;;;;19.18;75.05;100238.28;4999226;28;67840;-45
2023/07/25 03:09:07;;;;;;;;;7.67;4.00;;;;;19.15;75.30;100235.91;4999466;28;63508;-47
2023/07/25 03:11:32;;;;;;;;;3.33;3.33;;;;;19.15;74.30;100245.81;4999819;28;46621;-48
2023/07/25 03:13:58;;;;;;;;;3.00;3.00;;;;;19.08;74.76;100242.03;5000038;28;45281;-47
2023/07/25 03:16:23;;;;;;;;;4.00;4.00;;;;;19.03;74.46;100242.44;4998100;28;61384;-48
2023/07/25 03:18:48;;;;;;;;;5.00;3.67;;;;;18.99;74.30;100235.66;4999787;28;45446;-49
2023/07/25 03:21:14;;;;;;;;;2.67;2.67;;;;;18.97;74.47;100229.56;4999075;28;74014;-48
2023/07/25 03:23:39;;;;;;;;;5.33;3.00;;;;;18.94;75.04;100233.41;4999004;28;72208;-48
2023/07/25 03:26:04;;;;;;;;;3.33;3.33;;;;;18.95;76.25;100245.84;4998932;28;68048;-47
2023/07/25 03:28:30;;;;;;;;;4.00;3.00;;;;;18.94;76.93;100237.94;4999829;28;45595;-50
2023/07/25 03:30:55;;;;;;;;;4.00;4.00;;;;;18.90;77.49;100247.28;4998778;28;72867;-48
2023/07/25 03:33:20;;;;;;;;;8.33;5.00;;;;;18.87;77.61;100250.25;4999504;28;52061;-49
2023/07/25 03:35:46;;;;;;;;;1.67;1.67;;;;;18.83;78.58;100257.78;4998691;28;69145;-49
2023/07/25 03:38:11;;;;;;;;;2.33;2.33;;;;;18.80;78.83;100256.22;5000271;28;62976;-46
2023/07/25 03:40:36;;;;;;;;;2.67;2.67;;;;;18.77;79.02;100252.94;5003708;28;45890;-50
2023/07/25 03:43:02;;;;;;;;;4.33;3.33;;;;;18.72;79.71;100248.00;4998715;28;64789;-50
2023/07/25 03:45:27;;;;;;;;;3.67;3.67;;;;;18.66;81.78;100251.25;4998895;28;45289;-46
2023/07/25 03:47:52;;;;;;;;;3.00;2.00;;;;;18.63;81.66;100247.00;5002425;28;65369;-47
2023/07/25 03:50:18;;;;;;;;;3.67;3.00;;;;;18.61;81.25;100253.53;5002794;28;45941;-49
2023/07/25 03:52:43;;;;;;;;;3.00;3.00;;;;;18.59;82.00;100258.19;5001105;28;62540;-50
2023/07/25 03:55:08;;;;;;;;;3.33;3.33;;;;;18.57;81.81;100261.03;4996518;28;45474;-50
2023/07/25 03:57:34;;;;;;;;;3.00;3.00;;;;;18.54;82.38;100258.66;4995237;28;45375;-50
2023/07/25 03:59:59;;;;;;;;;2.00;2.00;;;;;18.52;82.22;100268.69;4997717;28;73347;-45
2023/07/25 04:02:24;;;;;;;;;2.00;2.00;;;;;18.49;83.40;100271.69;5000644;28;59552;-43
2023/07/25 04:04:50;;;;;;;;;4.00;4.00;;;;;18.44;83.63;100276.63;4999726;28;61972;-49
2023/07/25 04:07:15;;;;;;;;;3.00;3.00;;;;;18.42;85.21;100289.38;5001237;28;45530;-47
2023/07/25 04:09:40;;;;;;;;;7.00;6.00;;;;;18.38;84.41;100294.19;5001626;28;72832;-50
2023/07/25 04:12:06;;;;;;;;;4.00;4.00;;;;;18.33;83.83;100297.31;5002920;28;72791;-48
2023/07/25 04:14:32;;;;;;;;;5.00;3.00;;;;;18.30;85.16;100305.66;5002900;28;45225;-48
2023/07/25 04:16:57;;;;;;;;;4.00;4.00;;;;;18.26;84.84;100308.75;5001865;28;67293;-43
2023/07/25 04:19:22;;;;;;;;;3.67;3.67;;;;;18.22;85.46;100307.34;5001178;28;72106;-44
2023/07/25 04:21:48;;;;;;;;;4.00;4.00;;;;;18.16;84.30;100306.03;5001882;28;66330;-46
2023/07/25 04:24:13;;;;;;;;;2.00;1.67;;;;;18.10;86.02;100309.31;5002432;28;51037;-45
2023/07/25 04:26:38;;;;;;;;;3.33;3.33;;;;;18.08;87.37;100304.06;5002626;28;45617;-48
2023/07/25 04:29:03;;;;;;;;;4.33;4.33;;;;;18.08;87.10;100305.88;5001422;28;73420;-45
2023/07/25 04:31:29;;;;;;;;;6.67;5.00;;;;;18.07;86.13;100298.78;5001412;28;70336;-44
2023/07/25 04:33:54;;;;;;;;;5.00;5.00;;;;;18.06;87.29;100300.66;5001350;28;68586;-43
2023/07/25 04:36:19;;;;;;;;;6.67;5.00;;;;;18.07;87.44;100296.09;5001951;28;60832;-46
2023/07/25 04:38:45;;;;;;;;;6.00;4.00;;;;;18.08;87.62;100304.06;5001349;28;74270;-48
2023/07/25 04:41:10;;;;;;;;;8.00;6.67;;;;;18.10;86.88;100301.22;5001493;28;69472;-46
2023/07/25 04:43:35;;;;;;;;;4.67;4.67;;;;;18.09;86.26;100296.84;5002688;28;45336;-45
2023/07/25 04:46:01;;;;;;;;;5.33;5.33;;;;;18.05;86.82;100295.41;5002234;28;45348;-43
2023/07/25 04:48:26;;;;;;;;;6.33;5.67;;;;;18.01;87.20;100298.34;5000986;28;71520;-45
2023/07/25 04:50:51;;;;;;;;;6.00;6.00;;;;;18.02;86.49;100302.75;4999300;28;69053;-44
2023/07/25 04:53:17;;;;;;;;;8.33;6.00;;;;;18.00;86.09;100306.56;5001833;28;52360;-45
2023/07/25 04:55:42;;;;;;;;;6.67;6.00;;;;;17.98;86.79;100309.41;4995041;28;50241;-45
2023/07/25 04:58:07;;;;;;;;;5.67;5.67;;;;;17.99;87.07;100315.63;5000755;28;68214;-45
2023/07/25 05:00:33;;;;;;;;;8.33;8.00;;;;;17.99;86.74;100311.09;5001791;28;45728;-46
2023/07/25 05:02:58;;;;;;;;;6.00;6.00;;;;;17.99;89.11;100319.19;5001761;28;45385;-43
2023/07/25 05:05:23;;;;;;;;;5.67;5.67;;;;;18.01;90.66;100317.19;5000700;28;61105;-44
2023/07/25 05:07:49;;;;;;;;;7.67;6.00;;;;;18.02;90.64;100308.13;5000605;28;66634;-44
2023/07/25 05:10:14;;;;;;;;;6.00;6.00;;;;;18.02;89.90;100318.91;5000991;28;65358;-43
2023/07/25 05:12:39;;;;;;;;;9.00;5.67;;;;;18.01;89.62;100319.88;5000633;28;66750;-45
2023/07/25 05:15:05;;;;;;;;;9.33;7.00;;;;;18.02;89.95;100318.91;5001159;28;63553;-43
2023/07/25 05:17:30;;;;;;;;;8.33;7.00;;;;;18.03;90.00;100319.78;5001706;28;46183;-45
2023/07/25 05:19:56;;;;;;;;;8.33;7.00;;;;;18.05;90.05;100325.00;4998418;28;69585;-48
2023/07/25 05:22:21;;;;;;;;;6.67;6.00;;;;;18.03;89.14;100319.78;5000711;28;65206;-44
2023/07/25 05:24:47;;;;;;;;;6.00;5.67;;;;;18.01;88.07;100319.03;5000267;28;45361;-43
2023/07/25 05:27:12;;;;;;;;;5.67;5.67;;;;;17.99;87.81;100323.69;5000146;28;46981;-45
2023/07/25 05:29:38;;;;;;;;;5.33;5.33;;;;;18.00;88.68;100326.28;4999590;28;45468;-43
2023/07/25 05:32:03;;;;;;;;;5.00;5.00;;;;;18.02;88.17;100324.28;5000081;28;64686;-44
2023/07/25 05:34:29;;;;;;;;;6.00;6.00;;;;;18.07;88.08;100334.66;4999742;28;45334;-46
2023/07/25 05:36:54;;;;;;;;;10.00;7.00;;;;;18.10;87.14;100330.84;5000005;28;75656;-44
2023/07/25 05:39:19;;;;;;;;;5.00;5.00;;;;;18.13;86.76;100336.81;5001494;28;45289;-44
2023/07/25 05:41:44;;;;;;;;;4.00;4.00;;;;;18.17;86.92;100340.91;5000582;28;66815;-46
2023/07/25 05:44:10;;;;;;;;;4.67;4.33;;;;;18.22;87.27;100339.66;5000459;28;68243;-45
2023/07/25 05:46:35;;;;;;;;;7.00;6.00;;;;;18.28;86.43;100350.72;5000290;28;73424;-45
2023/07/25 05:49:01;;;;;;;;;4.00;3.00;;;;;18.31;85.59;100344.19;5000857;28;45433;-45
2023/07/25 05:51:26;;;;;;;;;4.33;4.33;;;;;18.32;85.68;100349.44;5000351;28;66601;-45
2023/07/25 05:53:51;;;;;;;;;5.00;5.00;;;;;18.33;85.03;100351.16;5000426;28;66717;-46
2023/07/25 05:56:17;;;;;;;;;6.67;5.33;;;;;18.35;84.31;100354.56;4993892;28;46264;-45
2023/07/25 05:58:43;;;;;;;;;5.00;5.00;;;;;18.39;84.10;100363.19;5000100;28;68086;-46
2023/07/25 06:01:08;;;;;;;;;5.00;5.00;;;;;18.41;84.29;100353.16;5001322;28;45491;-44
2023/07/25 06:03:33;;;;;;;;;7.67;7.00;;;;;18.42;83.64;100359.38;4998789;28;64817;-45
2023/07/25 06:05:59;;;;;;;;;5.67;5.00;;;;;18.43;83.40;100364.63;4999816;28;75568;-46
2023/07/25 06:08:24;;;;;;;;;4.33;4.33;;;;;18.45;83.05;100361.81;5000882;28;45453;-47
2023/07/25 06:10:49;;;;;;;;;7.33;7.33;;;;;18.48;83.21;100370.44;5000280;28;65929;-45
2023/07/25 06:13:15;;;;;;;;;8.00;6.00;;;;;18.48;82.91;100375.81;5000997;28;45163;-44
2023/07/25 06:15:40;;;;;;;;;8.67;5.00;;;;;18.50;83.04;100375.72;5000054;28;73781;-47
2023/07/25 06:18:05;;;;;;;;;6.00;5.00;;;;;18.50;82.51;100376.53;4999908;28;66212;-48
2023/07/25 06:20:34;;;;;;;;;7.33;5.67;;;;;18.49;82.29;100382.06;4999395;28;45412;-45
2023/07/25 06:23:01;;;;;;;;;6.00;6.00;;;;;18.47;82.27;100381.34;5000683;28;45518;-46
2023/07/25 06:25:26;;;;;;;;;8.00;8.00;;;;;18.45;82.03;100383.34;5000633;28;46146;-46
2023/07/25 06:27:52;;;;;;;;;9.67;9.67;;;;;18.42;81.10;100386.28;5000511;28;45261;-44
2023/07/25 06:30:17;;;;;;;;;8.33;8.33;;;;;18.38;80.39;100398.34;5000287;28;45412;-47
2023/07/25 06:32:43;;;;;;;;;10.33;10.33;;;;;18.31;80.61;100398.88;5000008;28;45747;-45
2023/07/25 06:35:08;;;;;;;;;10.00;10.00;;;;;18.30;80.43;100410.66;4999053;28;70589;-45
2023/07/25 06:37:35;;;;;;;;;13.00;11.00;;;;;18.24;79.60;100410.31;5000415;28;45475;-49
2023/07/25 06:40:00;;;;;;;;;12.33;11.00;;;;;18.11;78.55;100418.66;4998838;28;45489;-48
2023/07/25 06:42:28;;;;;;;;;11.00;11.00;;;;;17.93;78.66;100415.72;4999614;28;45349;-47
2023/07/25 06:44:54;;;;;;;;;16.00;12.33;;;;;17.80;78.61;100421.28;5000439;28;46138;-49
2023/07/25 06:47:19;;;;;;;;;14.00;11.00;;;;;17.71;78.57;100425.63;5000429;28;45342;-46
2023/07/25 06:49:44;;;;;;;;;10.33;10.33;;;;;17.62;78.44;100429.94;4999260;28;63577;-43
2023/07/25 06:52:10;;;;;;;;;12.00;10.33;;;;;17.55;78.41;100436.84;5000236;28;45392;-45
2023/07/25 06:54:37;;;;;;;;;12.67;10.67;;;;;17.44;78.14;100431.53;4996070;28;67673;-46
2023/07/25 06:57:02;;;;;;;;;7.00;7.00;;;;;17.35;78.21;100434.00;4996195;28;45467;-46
2023/07/25 06:59:29;;;;;;;;;11.00;11.00;;;;;17.32;78.55;100434.25;5000171;28;45515;-49
2023/07/25 07:01:55;;;;;;;;;11.00;10.00;;;;;17.28;78.98;100443.56;4999045;28;45448;-46
2023/07/25 07:04:20;;;;;;;;;9.67;7.67;;;;;17.32;79.41;100453.06;4998516;28;47273;-46
2023/07/25 07:06:45;;;;;;;;;7.67;6.67;;;;;17.34;78.11;100456.50;4999272;28;73063;-44
2023/07/25 07:09:11;;;;;;;;;5.00;5.00;;;;;17.34;78.07;100464.56;5000089;28;45423;-47
2023/07/25 07:11:36;;;;;;;;;7.00;7.00;;;;;17.33;77.96;100464.69;5000259;28;45392;-45
2023/07/25 07:14:01;;;;;;;;;8.00;5.00;;;;;17.34;77.35;100475.31;4998669;28;74699;-48
2023/07/25 07:16:27;;;;;;;;;6.00;6.00;;;;;17.33;76.95;100473.59;4999341;28;64884;-45
2023/07/25 07:18:52;;;;;;;;;7.00;3.67;;;;;17.33;76.57;100480.81;4998870;28;67004;-46
2023/07/25 07:21:18;;;;;;;;;4.00;4.00;;;;;17.28;76.39;100481.19;4999814;28;45627;-47
2023/07/25 07:23:43;;;;;;;;;5.33;4.33;;;;;17.24;76.09;100493.19;4999871;28;45477;-45
2023/07/25 07:26:08;;;;;;;;;4.00;4.00;;;;;17.25;75.14;100502.09;4999149;28;72567;-45
2023/07/25 07:28:34;;;;;;;;;3.33;3.33;;;;;17.19;74.97;100495.41;4999397;28;51573;-44
2023/07/25 07:30:59;;;;;;;;;1.00;1.00;;;;;17.17;75.59;100502.75;5000002;28;45422;-48
2023/07/25 07:33:25;;;;;;;;;4.00;4.00;;;;;17.25;75.67;100502.09;4997351;28;64563;-47
2023/07/25 07:35:51;;;;;;;;;3.00;2.00;;;;;17.38;74.92;100515.38;4999585;28;45489;-48
2023/07/25 07:38:16;;;;;;;;;1.33;1.33;;;;;17.45;74.21;100516.56;4999838;28;45507;-46
2023/07/25 07:40:41;;;;;;;;;3.00;3.00;;;;;17.51;73.69;100521.44;4999064;28;64451;-45
2023/07/25 07:43:07;;;;;;;;;2.00;2.00;;;;;17.52;73.76;100536.56;4999549;28;45983;-46
2023/07/25 07:45:32;;;;;;;;;3.00;2.00;;;;;17.50;72.86;100543.94;4998614;28;69218;-45
2023/07/25 07:47:57;;;;;;;;;2.00;1.00;;;;;17.41;72.88;100537.47;4999645;28;45487;-43
2023/07/25 07:50:23;;;;;;;;;1.00;1.00;;;;;17.30;72.69;100542.88;4997453;28;67029;-46
2023/07/25 07:52:48;;;;;;;;;2.33;2.00;;;;;17.22;73.21;100548.88;4997256;28;74272;-47
2023/07/25 07:55:15;;;;;;;;;1.00;1.00;;;;;17.19;73.60;100541.09;4990947;28;60698;-49
2023/07/25 07:57:42;;;;;;;;;1.00;1.00;;;;;17.16;72.79;100546.72;4998450;28;45380;-48
2023/07/25 08:00:08;;;;;;;;;2.00;1.00;;;;;17.07;72.74;100548.31;4999645;28;45379;-49
2023/07/25 08:02:33;;;;;;;;;1.00;1.00;;;;;17.07;72.80;100555.53;4999090;28;47156;-46
2023/07/25 08:04:58;;;;;;;;;2.33;1.00;;;;;17.05;72.09;100557.47;4996901;28;69779;-43
2023/07/25 08:07:24;;;;;;;;;1.67;1.33;;;;;17.00;73.04;100569.47;4998857;28;61423;-46
2023/07/25 08:09:53;;;;;;;;;1.00;0.67;;;;;17.01;71.73;100573.88;4995792;28;62578;-43
2023/07/25 08:12:19;;;;;;;;;3.00;1.00;;;;;17.02;72.05;100583.59;4998511;28;45555;-45
2023/07/25 08:14:44;;;;;;;;;1.33;1.33;;;;;17.05;71.52;100579.81;4994532;28;47972;-46
2023/07/25 08:17:09;;;;;;;;;3.00;1.33;;;;;17.09;71.38;100592.06;4996337;28;64900;-47
2023/07/25 08:19:35;;;;;;;;;2.00;1.33;;;;;17.13;71.37;100589.94;4995967;28;66462;-47
2023/07/25 08:22:00;;;;;;;;;1.00;1.00;;;;;17.17;71.22;100586.06;4995865;28;73116;-45
2023/07/25 08:24:25;;;;;;;;;1.33;1.33;;;;;17.25;71.78;100594.34;4995542;28;73030;-47
2023/07/25 08:26:51;;;;;;;;;2.33;1.00;;;;;17.36;71.25;100598.81;4999306;28;66405;-48
2023/07/25 08:29:16;;;;;;;;;2.00;2.00;;;;;17.46;70.66;100597.09;4999868;28;52654;-47
2023/07/25 08:31:41;;;;;;;;;1.00;1.00;;;;;17.57;70.96;100606.94;5000641;28;53994;-46
2023/07/25 08:34:06;;;;;;;;;1.00;1.00;;;;;17.68;70.45;100609.63;5000020;28;71389;-45
2023/07/25 08:36:32;;;;;;;;;0.00;0.00;;;;;17.78;69.63;100606.16;5001799;28;55760;-47
2023/07/25 08:38:57;;;;;;;;;1.00;1.00;;;;;17.84;68.62;100617.25;5002462;28;45635;-46
2023/07/25 08:41:26;;;;;;;;;1.00;1.00;;;;;17.92;68.33;100626.53;5002539;28;45983;-46
2023/07/25 08:43:53;;;;;;;;;1.00;1.00;;;;;17.97;68.04;100627.88;5002285;28;45338;-47
2023/07/25 08:46:20;;;;;;;;;1.00;1.00;;;;;18.01;67.98;100636.56;5002473;28;45428;-47
2023/07/25 08:48:47;;;;;;;;;1.67;1.67;;;;;18.12;67.73;100631.13;5002098;28;45507;-47
2023/07/25 08:51:19;;;;;;;;;1.33;1.33;;;;;18.28;67.73;100637.91;5002089;28;45412;-49
2023/07/25 08:54:01;;;;;;;;;2.67;2.00;;;;;18.48;67.42;100649.66;5002161;28;45396;-48
2023/07/25 08:56:27;;;;;;;;;4.00;2.33;;;;;18.72;67.18;100652.06;4994929;28;45355;-49
2023/07/25 08:58:54;;;;;;;;;1.67;1.67;;;;;18.89;66.50;100655.13;5001886;28;45474;-45
2023/07/25 09:01:21;;;;;;;;;3.00;2.00;;;;;18.95;66.11;100654.63;5000313;28;62546;-48
2023/07/25 09:03:47;;;;;;;;;2.00;2.00;;;;;19.01;65.99;100657.63;5001792;28;45447;-49
2023/07/25 09:06:13;;;;;;;;;3.00;2.00;;;;;19.12;66.43;100666.59;5000758;28;45389;-47
2023/07/25 09:08:38;;;;;;;;;3.67;2.33;;;;;19.22;66.53;100667.50;5001795;28;45502;-46
2023/07/25 09:11:04;;;;;;;;;3.67;1.67;;;;;19.38;65.41;100669.66;5001272;28;45868;-47
2023/07/25 09:13:30;;;;;;;;;2.00;2.00;;;;;19.65;65.35;100676.28;4999270;28;45508;-45
2023/07/25 09:15:55;;;;;;;;;3.67;2.00;;;;;19.94;64.64;100665.53;5001110;28;60800;-45
2023/07/25 09:18:21;;;;;;;;;2.00;2.00;;;;;20.14;63.80;100681.75;5000341;28;69161;-45
2023/07/25 09:20:46;;;;;;;;;3.67;3.67;;;;;20.62;63.98;100688.97;4996108;28;74264;-45
2023/07/25 09:23:19;;;;;;;;;3.67;3.33;;;;;21.04;62.91;100689.59;4996876;28;70325;-47
2023/07/25 09:25:45;;;;;;;;;2.00;2.00;;;;;21.31;62.31;100691.47;5000474;28;45780;-45
2023/07/25 09:28:10;;;;;;;;;5.00;3.00;;;;;21.61;61.28;100698.47;5000102;28;69601;-47
2023/07/25 09:30:35;;;;;;;;;5.00;3.00;;;;;21.77;60.67;100699.66;5000365;28;75504;-47
2023/07/25 09:33:01;;;;;;;;;3.33;3.33;;;;;21.95;59.20;100703.25;5000776;28;58413;-47
2023/07/25 09:35:26;;;;;;;;;4.67;4.00;;;;;22.25;58.87;100703.88;5000082;28;67784;-46
2023/07/25 09:37:53;;;;;;;;;5.00;3.00;;;;;22.50;58.34;100705.97;5000579;28;62305;-45
2023/07/25 09:40:18;;;;;;;;;4.00;4.00;;;;;22.79;57.36;100713.81;5001294;28;45416;-44
2023/07/25 09:42:44;;;;;;;;;3.00;3.00;;;;;22.87;55.89;100703.03;5000291;28;69044;-45
2023/07/25 09:45:11;;;;;;;;;2.00;2.00;;;;;22.94;56.07;100714.94;5002005;28;45349;-48
2023/07/25 09:47:38;;;;;;;;;4.00;4.00;;;;;23.85;56.46;100728.09;5002236;28;45466;-46
2023/07/25 09:50:05;;;;;;;;;3.00;3.00;;;;;25.23;53.04;100722.00;5000556;28;46349;-46
2023/07/25 09:52:41;;;;;;;;;4.00;4.00;;;;;26.45;51.58;100726.16;5000960;28;45440;-47
2023/07/25 09:55:07;;;;;;;;;3.67;3.67;;;;;27.49;49.44;100729.03;4993790;28;45481;-46
2023/07/25 09:57:33;;;;;;;;;4.33;3.33;;;;;27.66;47.90;100735.13;5001289;28;45440;-46
2023/07/25 09:59:58;;;;;;;;;4.25;4.25;;;;;27.90;46.65;100739.44;5000788;28;46986;-44
2023/07/25 10:02:25;;;;;;;;;3.67;3.67;;;;;27.71;45.11;100732.69;5000996;28;45454;-45
2023/07/25 10:04:50;;;;;;;;;6.00;6.00;;;;;27.32;45.38;100733.81;4999499;28;45364;-45
2023/07/25 10:07:17;;;;;;;;;3.33;3.33;;;;;26.80;44.47;100742.91;4995906;28;61606;-44
2023/07/25 10:09:45;;;;;;;;;7.67;5.67;;;;;26.06;45.56;100741.56;4994712;28;46348;-46
2023/07/25 10:12:11;;;;;;;;;6.00;5.33;;;;;25.43;45.76;100741.53;5001026;28;45308;-46
2023/07/25 10:14:37;;;;;;;;;6.00;5.67;;;;;25.38;46.49;100736.63;5000715;28;45940;-49
2023/07/25 10:17:04;;;;;;;;;5.67;5.67;;;;;25.30;45.83;100743.94;4999897;28;45613;-46
2023/07/25 10:19:48;;;;;;;;;7.00;5.67;;;;;25.59;46.18;100746.03;4999224;28;46365;-45
2023/07/25 10:22:14;;;;;;;;;6.67;6.67;;;;;26.01;45.73;100741.22;5000966;28;45385;-46
2023/07/25 10:24:39;;;;;;;;;6.33;6.33;;;;;26.48;44.84;100742.13;4999239;28;47159;-48
2023/07/25 10:27:09;;;;;;;;;6.00;4.25;;;;;27.39;44.28;100734.81;4999790;28;68950;-45
2023/07/25 10:29:36;;;;;;;;;4.67;4.67;;;;;28.32;42.00;100744.31;5000587;28;46155;-45
2023/07/25 10:32:02;;;;;;;;;6.00;6.00;;;;;28.30;40.98;100743.66;4999418;28;45398;-46
2023/07/25 10:34:45;;;;;;;;;7.00;5.25;;;;;27.36;40.68;100737.88;4998968;28;45494;-45
2023/07/25 10:37:25;;;;;;;;;4.50;3.50;;;;;26.40;42.00;100737.63;5000725;28;45463;-46
2023/07/25 10:40:03;;;;;;;;;6.00;4.00;;;;;25.46;42.58;100738.47;5000198;28;45666;-47
2023/07/25 10:42:43;;;;;;;;;5.00;5.00;;;;;24.61;44.02;100747.91;4994890;28;45529;-48
2023/07/25 10:45:46;;;;;;;;;6.67;6.00;;;;;24.35;45.49;100758.94;4999612;28;45728;-49
2023/07/25 10:48:35;;;;;;;;;8.67;7.33;;;;;26.47;44.44;100746.75;4990065;28;45589;-47
2023/07/25 10:51:03;;;;;;;;;6.00;6.00;;;;;28.07;41.48;100750.16;4999910;28;45697;-50
2023/07/25 10:53:29;;;;;;;;;4.67;4.67;;;;;28.50;40.10;100755.66;4999276;28;45437;-47
2023/07/25 10:56:03;;;;;;;;;4.50;4.50;;;;;28.17;39.75;100752.56;5000290;28;45359;-46
2023/07/25 10:58:29;;;;;;;;;5.50;4.25;;;;;28.11;38.88;100751.47;5000012;28;45365;-46
2023/07/25 11:00:55;;;;;;;;;4.50;4.50;;;;;28.04;39.78;100761.47;4998338;28;46491;-48
2023/07/25 11:03:34;;;;;;;;;2.50;2.50;;;;;27.75;39.67;100760.47;4997629;28;70258;-45
2023/07/25 11:06:19;;;;;;;;;6.33;5.00;;;;;27.07;39.68;100769.59;5000389;28;45392;-47
2023/07/25 11:08:45;;;;;;;;;5.00;5.00;;;;;26.52;40.52;100766.13;5002631;28;45472;-48
2023/07/25 11:11:11;;;;;;;;;2.50;2.50;;;;;26.31;40.10;100768.66;4999168;28;73471;-47
2023/07/25 11:13:40;;;;;;;;;2.25;2.25;;;;;26.15;41.37;100766.91;4999972;28;45404;-49
2023/07/25 11:16:10;;;;;;;;;4.00;4.00;;;;;25.85;41.40;100770.28;5000130;28;45657;-46
2023/07/25 11:18:37;;;;;;;;;6.00;4.00;;;;;25.52;40.34;100764.13;4985183;28;45378;-49
2023/07/25 11:21:07;;;;;;;;;3.75;3.75;;;;;25.55;41.59;100761.03;5000003;28;46258;-46